sensor_id;sensor_type;location;lat;lon;timestamp;P1;durP1;ratioP1;P2;durP2;ratioP2
24897;SDS011;12957;49.434;8.684;2022-09-01T00:01:25;5.68;;;3.47;;
24897;SDS011;12957;49.434;8.684;2022-09-01T00:03:52;3.83;;;3.55;;
24897;SDS011;12957;49.434;8.684;2022-09-01T00:06:29;3.95;;;3.60;;
24897;SDS011;12957;49.434;8.684;2022-09-01T00:08:56;4.45;;;3.50;;
24897;SDS011;12957;49.434;8.684;2022-09-01T00:11:24;6.35;;;3.53;;
24897;SDS011;12957;49.434;8.684;2022-09-01T00:13:50;3.78;;;3.47;;
24897;SDS011;12957;49.434;8.684;2022-09-01T00:16:16;5.50;;;3.58;;
24897;SDS011;12957;49.434;8.684;2022-09-01T00:18:42;4.45;;;3.40;;
24897;SDS011;12957;49.434;8.684;2022-09-01T00:21:10;3.60;;;3.17;;
24897;SDS011;12957;49.434;8.684;2022-09-01T00:23:36;3.70;;;3.40;;
24897;SDS011;12957;49.434;8.684;2022-09-01T00:26:02;4.10;;;3.42;;
24897;SDS011;12957;49.434;8.684;2022-09-01T00:28:27;7.97;;;4.60;;
24897;SDS011;12957;49.434;8.684;2022-09-01T00:30:53;3.95;;;3.65;;
24897;SDS011;12957;49.434;8.684;2022-09-01T00:33:18;5.20;;;3.97;;
24897;SDS011;12957;49.434;8.684;2022-09-01T00:35:44;6.28;;;4.10;;
24897;SDS011;12957;49.434;8.684;2022-09-01T00:38:09;4.30;;;3.90;;
24897;SDS011;12957;49.434;8.684;2022-09-01T00:40:35;4.43;;;4.03;;
24897;SDS011;12957;49.434;8.684;2022-09-01T00:43:09;5.20;;;4.03;;
24897;SDS011;12957;49.434;8.684;2022-09-01T00:45:38;5.78;;;4.65;;
24897;SDS011;12957;49.434;8.684;2022-09-01T00:48:05;5.40;;;4.90;;
24897;SDS011;12957;49.434;8.684;2022-09-01T00:50:31;5.70;;;4.28;;
24897;SDS011;12957;49.434;8.684;2022-09-01T00:52:56;4.20;;;3.80;;
24897;SDS011;12957;49.434;8.684;2022-09-01T00:55:29;6.63;;;4.60;;
24897;SDS011;12957;49.434;8.684;2022-09-01T00:57:55;5.15;;;4.72;;
24897;SDS011;12957;49.434;8.684;2022-09-01T01:00:24;6.10;;;4.90;;
24897;SDS011;12957;49.434;8.684;2022-09-01T01:02:52;6.35;;;4.78;;
24897;SDS011;12957;49.434;8.684;2022-09-01T01:05:20;5.07;;;4.63;;
24897;SDS011;12957;49.434;8.684;2022-09-01T01:07:47;5.65;;;4.75;;
24897;SDS011;12957;49.434;8.684;2022-09-01T01:10:14;8.05;;;5.15;;
24897;SDS011;12957;49.434;8.684;2022-09-01T01:12:41;4.78;;;4.28;;
24897;SDS011;12957;49.434;8.684;2022-09-01T01:15:08;6.22;;;4.97;;
24897;SDS011;12957;49.434;8.684;2022-09-01T01:17:34;7.30;;;4.72;;
24897;SDS011;12957;49.434;8.684;2022-09-01T01:20:00;6.13;;;4.97;;
24897;SDS011;12957;49.434;8.684;2022-09-01T01:23:28;6.75;;;5.13;;
24897;SDS011;12957;49.434;8.684;2022-09-01T01:30:38;6.88;;;4.68;;
24897;SDS011;12957;49.434;8.684;2022-09-01T01:33:06;5.90;;;4.97;;
24897;SDS011;12957;49.434;8.684;2022-09-01T01:35:31;6.20;;;5.30;;
24897;SDS011;12957;49.434;8.684;2022-09-01T01:37:58;5.82;;;5.00;;
24897;SDS011;12957;49.434;8.684;2022-09-01T01:40:24;7.97;;;5.68;;
24897;SDS011;12957;49.434;8.684;2022-09-01T01:42:51;6.03;;;5.40;;
24897;SDS011;12957;49.434;8.684;2022-09-01T01:45:18;5.72;;;5.13;;
24897;SDS011;12957;49.434;8.684;2022-09-01T01:47:46;5.78;;;4.90;;
24897;SDS011;12957;49.434;8.684;2022-09-01T01:50:17;4.90;;;4.50;;
24897;SDS011;12957;49.434;8.684;2022-09-01T01:52:46;6.00;;;5.00;;
24897;SDS011;12957;49.434;8.684;2022-09-01T01:55:12;5.80;;;4.95;;
24897;SDS011;12957;49.434;8.684;2022-09-01T01:57:38;6.15;;;4.57;;
24897;SDS011;12957;49.434;8.684;2022-09-01T02:00:12;7.22;;;4.97;;
24897;SDS011;12957;49.434;8.684;2022-09-01T02:02:43;9.27;;;4.93;;
24897;SDS011;12957;49.434;8.684;2022-09-01T02:05:13;9.32;;;5.15;;
24897;SDS011;12957;49.434;8.684;2022-09-01T02:07:45;4.65;;;4.22;;
24897;SDS011;12957;49.434;8.684;2022-09-01T02:10:10;6.32;;;4.70;;
24897;SDS011;12957;49.434;8.684;2022-09-01T02:12:36;4.75;;;4.18;;
24897;SDS011;12957;49.434;8.684;2022-09-01T02:15:02;5.20;;;4.53;;
24897;SDS011;12957;49.434;8.684;2022-09-01T02:17:27;7.35;;;4.55;;
24897;SDS011;12957;49.434;8.684;2022-09-01T02:19:53;5.47;;;4.75;;
24897;SDS011;12957;49.434;8.684;2022-09-01T02:22:21;4.57;;;4.18;;
24897;SDS011;12957;49.434;8.684;2022-09-01T02:24:47;7.22;;;5.20;;
24897;SDS011;12957;49.434;8.684;2022-09-01T02:27:13;6.85;;;4.50;;
24897;SDS011;12957;49.434;8.684;2022-09-01T02:29:39;6.00;;;4.93;;
24897;SDS011;12957;49.434;8.684;2022-09-01T02:32:05;6.35;;;5.00;;
24897;SDS011;12957;49.434;8.684;2022-09-01T02:34:30;5.93;;;4.95;;
24897;SDS011;12957;49.434;8.684;2022-09-01T02:36:56;5.30;;;4.57;;
24897;SDS011;12957;49.434;8.684;2022-09-01T02:39:26;6.05;;;5.20;;
24897;SDS011;12957;49.434;8.684;2022-09-01T02:41:53;4.65;;;4.25;;
24897;SDS011;12957;49.434;8.684;2022-09-01T02:44:19;5.75;;;4.28;;
24897;SDS011;12957;49.434;8.684;2022-09-01T02:46:46;4.93;;;4.22;;
24897;SDS011;12957;49.434;8.684;2022-09-01T02:49:13;4.93;;;4.53;;
24897;SDS011;12957;49.434;8.684;2022-09-01T02:51:44;8.95;;;4.30;;
24897;SDS011;12957;49.434;8.684;2022-09-01T02:54:11;4.57;;;4.18;;
24897;SDS011;12957;49.434;8.684;2022-09-01T02:56:40;4.80;;;4.40;;
24897;SDS011;12957;49.434;8.684;2022-09-01T02:59:06;6.10;;;4.30;;
24897;SDS011;12957;49.434;8.684;2022-09-01T03:01:37;5.85;;;4.32;;
24897;SDS011;12957;49.434;8.684;2022-09-01T03:04:04;4.82;;;4.20;;
24897;SDS011;12957;49.434;8.684;2022-09-01T03:06:32;6.63;;;4.80;;
24897;SDS011;12957;49.434;8.684;2022-09-01T03:08:58;4.30;;;3.90;;
24897;SDS011;12957;49.434;8.684;2022-09-01T03:11:25;6.10;;;4.50;;
24897;SDS011;12957;49.434;8.684;2022-09-01T03:13:51;7.68;;;4.57;;
24897;SDS011;12957;49.434;8.684;2022-09-01T03:16:17;6.60;;;4.53;;
24897;SDS011;12957;49.434;8.684;2022-09-01T03:18:43;5.90;;;4.63;;
24897;SDS011;12957;49.434;8.684;2022-09-01T03:21:09;4.65;;;4.25;;
24897;SDS011;12957;49.434;8.684;2022-09-01T03:23:39;6.00;;;4.45;;
24897;SDS011;12957;49.434;8.684;2022-09-01T03:26:04;4.28;;;3.97;;
24897;SDS011;12957;49.434;8.684;2022-09-01T03:28:29;6.25;;;4.70;;
24897;SDS011;12957;49.434;8.684;2022-09-01T03:30:56;4.82;;;4.43;;
24897;SDS011;12957;49.434;8.684;2022-09-01T03:33:22;6.03;;;4.82;;
24897;SDS011;12957;49.434;8.684;2022-09-01T03:35:49;7.38;;;5.05;;
24897;SDS011;12957;49.434;8.684;2022-09-01T03:38:15;5.93;;;5.30;;
24897;SDS011;12957;49.434;8.684;2022-09-01T03:40:44;5.43;;;4.93;;
24897;SDS011;12957;49.434;8.684;2022-09-01T03:43:11;6.10;;;5.32;;
24897;SDS011;12957;49.434;8.684;2022-09-01T03:45:38;7.05;;;5.32;;
24897;SDS011;12957;49.434;8.684;2022-09-01T03:48:04;5.97;;;5.18;;
24897;SDS011;12957;49.434;8.684;2022-09-01T03:50:33;5.75;;;5.25;;
24897;SDS011;12957;49.434;8.684;2022-09-01T03:53:00;6.03;;;5.43;;
24897;SDS011;12957;49.434;8.684;2022-09-01T03:55:27;8.15;;;4.97;;
24897;SDS011;12957;49.434;8.684;2022-09-01T03:57:56;8.13;;;5.15;;
24897;SDS011;12957;49.434;8.684;2022-09-01T04:00:25;5.70;;;4.97;;
24897;SDS011;12957;49.434;8.684;2022-09-01T04:02:54;5.38;;;4.85;;
24897;SDS011;12957;49.434;8.684;2022-09-01T04:05:21;5.43;;;4.97;;
24897;SDS011;12957;49.434;8.684;2022-09-01T04:07:49;6.85;;;5.32;;
24897;SDS011;12957;49.434;8.684;2022-09-01T04:10:16;7.57;;;5.25;;
24897;SDS011;12957;49.434;8.684;2022-09-01T04:12:42;5.47;;;4.80;;
24897;SDS011;12957;49.434;8.684;2022-09-01T04:15:09;6.80;;;5.03;;
24897;SDS011;12957;49.434;8.684;2022-09-01T04:17:35;7.93;;;5.43;;
24897;SDS011;12957;49.434;8.684;2022-09-01T04:20:19;5.47;;;4.97;;
24897;SDS011;12957;49.434;8.684;2022-09-01T04:22:46;6.95;;;5.10;;
24897;SDS011;12957;49.434;8.684;2022-09-01T04:25:13;5.93;;;5.18;;
24897;SDS011;12957;49.434;8.684;2022-09-01T04:27:40;6.03;;;5.43;;
24897;SDS011;12957;49.434;8.684;2022-09-01T04:30:06;6.43;;;5.57;;
24897;SDS011;12957;49.434;8.684;2022-09-01T04:32:37;6.38;;;5.10;;
24897;SDS011;12957;49.434;8.684;2022-09-01T04:35:04;6.70;;;6.10;;
24897;SDS011;12957;49.434;8.684;2022-09-01T04:37:31;5.38;;;4.90;;
24897;SDS011;12957;49.434;8.684;2022-09-01T04:40:00;6.70;;;5.32;;
24897;SDS011;12957;49.434;8.684;2022-09-01T04:42:26;6.13;;;5.43;;
24897;SDS011;12957;49.434;8.684;2022-09-01T04:44:53;6.57;;;5.80;;
24897;SDS011;12957;49.434;8.684;2022-09-01T04:47:21;6.43;;;5.50;;
24897;SDS011;12957;49.434;8.684;2022-09-01T04:49:54;6.15;;;5.25;;
24897;SDS011;12957;49.434;8.684;2022-09-01T04:52:27;9.32;;;5.63;;
24897;SDS011;12957;49.434;8.684;2022-09-01T04:54:53;7.38;;;6.05;;
24897;SDS011;12957;49.434;8.684;2022-09-01T04:57:19;6.50;;;5.82;;
24897;SDS011;12957;49.434;8.684;2022-09-01T04:59:45;6.40;;;5.80;;
24897;SDS011;12957;49.434;8.684;2022-09-01T05:02:10;6.82;;;6.13;;
24897;SDS011;12957;49.434;8.684;2022-09-01T05:04:36;6.72;;;6.03;;
24897;SDS011;12957;49.434;8.684;2022-09-01T05:07:04;5.85;;;5.35;;
24897;SDS011;12957;49.434;8.684;2022-09-01T05:09:30;6.40;;;5.80;;
24897;SDS011;12957;49.434;8.684;2022-09-01T05:11:59;6.25;;;5.65;;
24897;SDS011;12957;49.434;8.684;2022-09-01T05:14:36;10.88;;;6.00;;
24897;SDS011;12957;49.434;8.684;2022-09-01T05:17:02;6.78;;;6.03;;
24897;SDS011;12957;49.434;8.684;2022-09-01T05:19:35;6.50;;;5.82;;
24897;SDS011;12957;49.434;8.684;2022-09-01T05:22:01;5.93;;;5.35;;
24897;SDS011;12957;49.434;8.684;2022-09-01T05:24:27;6.80;;;5.60;;
24897;SDS011;12957;49.434;8.684;2022-09-01T05:26:54;6.30;;;5.60;;
24897;SDS011;12957;49.434;8.684;2022-09-01T05:29:19;7.07;;;5.40;;
24897;SDS011;12957;49.434;8.684;2022-09-01T05:31:46;8.07;;;5.97;;
24897;SDS011;12957;49.434;8.684;2022-09-01T05:34:12;5.78;;;5.28;;
24897;SDS011;12957;49.434;8.684;2022-09-01T05:36:41;7.68;;;5.78;;
24897;SDS011;12957;49.434;8.684;2022-09-01T05:39:07;6.13;;;5.63;;
24897;SDS011;12957;49.434;8.684;2022-09-01T05:41:37;6.60;;;5.85;;
24897;SDS011;12957;49.434;8.684;2022-09-01T05:44:05;8.93;;;5.80;;
24897;SDS011;12957;49.434;8.684;2022-09-01T05:46:32;7.22;;;5.38;;
24897;SDS011;12957;49.434;8.684;2022-09-01T05:48:58;6.85;;;5.90;;
24897;SDS011;12957;49.434;8.684;2022-09-01T05:51:25;5.68;;;5.20;;
24897;SDS011;12957;49.434;8.684;2022-09-01T05:53:53;7.72;;;4.72;;
24897;SDS011;12957;49.434;8.684;2022-09-01T05:56:23;5.82;;;4.57;;
24897;SDS011;12957;49.434;8.684;2022-09-01T05:58:50;4.75;;;4.35;;
24897;SDS011;12957;49.434;8.684;2022-09-01T06:01:22;4.38;;;4.03;;
24897;SDS011;12957;49.434;8.684;2022-09-01T06:03:50;4.25;;;3.95;;
24897;SDS011;12957;49.434;8.684;2022-09-01T06:06:29;4.32;;;3.92;;
24897;SDS011;12957;49.434;8.684;2022-09-01T06:08:59;4.85;;;4.10;;
24897;SDS011;12957;49.434;8.684;2022-09-01T06:11:26;11.63;;;4.40;;
24897;SDS011;12957;49.434;8.684;2022-09-01T06:13:53;4.28;;;3.92;;
24897;SDS011;12957;49.434;8.684;2022-09-01T06:16:22;4.63;;;4.15;;
24897;SDS011;12957;49.434;8.684;2022-09-01T06:18:48;5.07;;;4.22;;
24897;SDS011;12957;49.434;8.684;2022-09-01T06:21:16;4.95;;;4.40;;
24897;SDS011;12957;49.434;8.684;2022-09-01T06:23:43;4.43;;;4.03;;
24897;SDS011;12957;49.434;8.684;2022-09-01T06:28:47;6.38;;;4.40;;
24897;SDS011;12957;49.434;8.684;2022-09-01T06:31:18;4.32;;;3.70;;
24897;SDS011;12957;49.434;8.684;2022-09-01T06:33:47;5.13;;;3.70;;
24897;SDS011;12957;49.434;8.684;2022-09-01T06:36:15;5.95;;;4.25;;
24897;SDS011;12957;49.434;8.684;2022-09-01T06:38:41;5.88;;;3.88;;
24897;SDS011;12957;49.434;8.684;2022-09-01T06:41:07;3.85;;;3.55;;
24897;SDS011;12957;49.434;8.684;2022-09-01T06:43:36;3.95;;;3.65;;
24897;SDS011;12957;49.434;8.684;2022-09-01T06:46:03;5.35;;;3.08;;
24897;SDS011;12957;49.434;8.684;2022-09-01T06:48:28;3.17;;;3.03;;
24897;SDS011;12957;49.434;8.684;2022-09-01T06:50:57;3.70;;;3.08;;
24897;SDS011;12957;49.434;8.684;2022-09-01T06:53:27;4.93;;;3.20;;
24897;SDS011;12957;49.434;8.684;2022-09-01T06:55:55;3.35;;;3.15;;
24897;SDS011;12957;49.434;8.684;2022-09-01T06:58:20;3.22;;;2.95;;
24897;SDS011;12957;49.434;8.684;2022-09-01T07:00:46;3.30;;;3.10;;
24897;SDS011;12957;49.434;8.684;2022-09-01T07:03:13;3.30;;;3.10;;
24897;SDS011;12957;49.434;8.684;2022-09-01T07:05:40;3.58;;;3.28;;
24897;SDS011;12957;49.434;8.684;2022-09-01T07:08:08;2.95;;;2.80;;
24897;SDS011;12957;49.434;8.684;2022-09-01T07:10:45;4.15;;;3.30;;
24897;SDS011;12957;49.434;8.684;2022-09-01T07:13:12;3.75;;;3.35;;
24897;SDS011;12957;49.434;8.684;2022-09-01T07:15:43;5.32;;;3.22;;
24897;SDS011;12957;49.434;8.684;2022-09-01T07:18:08;4.60;;;3.00;;
24897;SDS011;12957;49.434;8.684;2022-09-01T07:20:39;4.57;;;3.47;;
24897;SDS011;12957;49.434;8.684;2022-09-01T07:23:06;5.25;;;3.35;;
24897;SDS011;12957;49.434;8.684;2022-09-01T07:25:32;7.53;;;3.35;;
24897;SDS011;12957;49.434;8.684;2022-09-01T07:27:58;12.15;;;3.42;;
24897;SDS011;12957;49.434;8.684;2022-09-01T07:30:24;3.38;;;3.00;;
24897;SDS011;12957;49.434;8.684;2022-09-01T07:32:50;4.82;;;3.17;;
24897;SDS011;12957;49.434;8.684;2022-09-01T07:35:19;4.45;;;3.78;;
24897;SDS011;12957;49.434;8.684;2022-09-01T07:37:46;3.88;;;3.00;;
24897;SDS011;12957;49.434;8.684;2022-09-01T07:40:13;3.00;;;2.80;;
24897;SDS011;12957;49.434;8.684;2022-09-01T07:42:44;3.90;;;2.92;;
24897;SDS011;12957;49.434;8.684;2022-09-01T07:45:11;4.55;;;3.20;;
24897;SDS011;12957;49.434;8.684;2022-09-01T07:47:38;3.20;;;3.00;;
24897;SDS011;12957;49.434;8.684;2022-09-01T07:50:04;5.78;;;3.30;;
24897;SDS011;12957;49.434;8.684;2022-09-01T07:52:33;3.67;;;2.80;;
24897;SDS011;12957;49.434;8.684;2022-09-01T07:54:59;3.95;;;2.97;;
24897;SDS011;12957;49.434;8.684;2022-09-01T07:57:25;2.90;;;2.70;;
24897;SDS011;12957;49.434;8.684;2022-09-01T07:59:51;3.17;;;2.95;;
24897;SDS011;12957;49.434;8.684;2022-09-01T08:02:19;3.53;;;3.22;;
24897;SDS011;12957;49.434;8.684;2022-09-01T08:04:45;3.05;;;2.85;;
24897;SDS011;12957;49.434;8.684;2022-09-01T08:07:11;3.00;;;2.80;;
24897;SDS011;12957;49.434;8.684;2022-09-01T08:09:36;3.13;;;2.92;;
24897;SDS011;12957;49.434;8.684;2022-09-01T08:12:03;4.38;;;2.60;;
24897;SDS011;12957;49.434;8.684;2022-09-01T08:14:29;3.20;;;2.92;;
24897;SDS011;12957;49.434;8.684;2022-09-01T08:16:55;3.33;;;2.78;;
24897;SDS011;12957;49.434;8.684;2022-09-01T08:19:21;5.60;;;2.95;;
24897;SDS011;12957;49.434;8.684;2022-09-01T08:21:47;3.13;;;2.83;;
24897;SDS011;12957;49.434;8.684;2022-09-01T08:24:12;3.60;;;2.92;;
24897;SDS011;12957;49.434;8.684;2022-09-01T08:26:38;3.33;;;3.10;;
24897;SDS011;12957;49.434;8.684;2022-09-01T08:29:04;5.20;;;3.20;;
24897;SDS011;12957;49.434;8.684;2022-09-01T08:31:29;3.38;;;2.97;;
24897;SDS011;12957;49.434;8.684;2022-09-01T08:33:55;4.80;;;3.10;;
24897;SDS011;12957;49.434;8.684;2022-09-01T08:36:21;6.20;;;3.38;;
24897;SDS011;12957;49.434;8.684;2022-09-01T08:38:46;3.30;;;3.10;;
24897;SDS011;12957;49.434;8.684;2022-09-01T08:41:17;3.20;;;3.00;;
24897;SDS011;12957;49.434;8.684;2022-09-01T08:46:19;3.90;;;2.97;;
24897;SDS011;12957;49.434;8.684;2022-09-01T08:48:59;3.03;;;2.72;;
24897;SDS011;12957;49.434;8.684;2022-09-01T08:51:29;3.55;;;3.03;;
24897;SDS011;12957;49.434;8.684;2022-09-01T08:57:28;2.90;;;2.70;;
24897;SDS011;12957;49.434;8.684;2022-09-01T08:59:53;3.08;;;2.67;;
24897;SDS011;12957;49.434;8.684;2022-09-01T09:02:28;2.63;;;2.45;;
24897;SDS011;12957;49.434;8.684;2022-09-01T09:16:10;2.70;;;2.50;;
24897;SDS011;12957;49.434;8.684;2022-09-01T09:18:49;5.60;;;2.90;;
24897;SDS011;12957;49.434;8.684;2022-09-01T09:21:19;2.85;;;2.47;;
24897;SDS011;12957;49.434;8.684;2022-09-01T09:23:49;2.78;;;2.55;;
24897;SDS011;12957;49.434;8.684;2022-09-01T09:26:20;3.65;;;2.90;;
24897;SDS011;12957;49.434;8.684;2022-09-01T09:28:46;3.17;;;2.83;;
24897;SDS011;12957;49.434;8.684;2022-09-01T09:34:18;2.55;;;2.42;;
24897;SDS011;12957;49.434;8.684;2022-09-01T09:36:59;3.17;;;2.97;;
24897;SDS011;12957;49.434;8.684;2022-09-01T09:39:26;2.60;;;2.50;;
24897;SDS011;12957;49.434;8.684;2022-09-01T09:42:05;2.88;;;2.67;;
24897;SDS011;12957;49.434;8.684;2022-09-01T09:44:38;4.95;;;2.75;;
24897;SDS011;12957;49.434;8.684;2022-09-01T09:47:05;2.90;;;2.70;;
24897;SDS011;12957;49.434;8.684;2022-09-01T09:49:32;2.55;;;2.35;;
24897;SDS011;12957;49.434;8.684;2022-09-01T09:54:27;2.92;;;2.42;;
24897;SDS011;12957;49.434;8.684;2022-09-01T10:04:51;2.40;;;2.30;;
24897;SDS011;12957;49.434;8.684;2022-09-01T10:07:24;3.03;;;2.30;;
24897;SDS011;12957;49.434;8.684;2022-09-01T10:10:04;2.53;;;2.30;;
24897;SDS011;12957;49.434;8.684;2022-09-01T10:12:50;3.45;;;2.53;;
24897;SDS011;12957;49.434;8.684;2022-09-01T10:15:17;2.20;;;2.10;;
24897;SDS011;12957;49.434;8.684;2022-09-01T10:17:44;2.42;;;2.33;;
24897;SDS011;12957;49.434;8.684;2022-09-01T10:20:24;2.33;;;2.22;;
24897;SDS011;12957;49.434;8.684;2022-09-01T10:22:50;2.45;;;2.25;;
24897;SDS011;12957;49.434;8.684;2022-09-01T10:25:18;2.40;;;2.30;;
24897;SDS011;12957;49.434;8.684;2022-09-01T10:27:50;3.92;;;2.13;;
24897;SDS011;12957;49.434;8.684;2022-09-01T10:30:18;2.40;;;2.20;;
24897;SDS011;12957;49.434;8.684;2022-09-01T10:35:45;2.40;;;2.20;;
24897;SDS011;12957;49.434;8.684;2022-09-01T10:38:07;2.30;;;2.10;;
24897;SDS011;12957;49.434;8.684;2022-09-01T10:45:49;2.20;;;2.10;;
24897;SDS011;12957;49.434;8.684;2022-09-01T10:50:43;4.53;;;2.20;;
24897;SDS011;12957;49.434;8.684;2022-09-01T10:53:11;2.40;;;2.28;;
24897;SDS011;12957;49.434;8.684;2022-09-01T10:56:42;3.35;;;2.40;;
24897;SDS011;12957;49.434;8.684;2022-09-01T11:06:45;2.63;;;2.42;;
24897;SDS011;12957;49.434;8.684;2022-09-01T11:09:27;2.58;;;2.38;;
24897;SDS011;12957;49.434;8.684;2022-09-01T11:14:22;9.20;;;2.47;;
24897;SDS011;12957;49.434;8.684;2022-09-01T11:17:09;5.25;;;2.28;;
24897;SDS011;12957;49.434;8.684;2022-09-01T11:19:37;2.47;;;2.30;;
24897;SDS011;12957;49.434;8.684;2022-09-01T11:27:03;2.33;;;2.22;;
24897;SDS011;12957;49.434;8.684;2022-09-01T11:32:24;2.88;;;2.55;;
24897;SDS011;12957;49.434;8.684;2022-09-01T11:34:52;2.90;;;2.63;;
24897;SDS011;12957;49.434;8.684;2022-09-01T11:37:22;4.32;;;2.65;;
24897;SDS011;12957;49.434;8.684;2022-09-01T11:39:50;21.50;;;2.97;;
24897;SDS011;12957;49.434;8.684;2022-09-01T11:42:24;2.83;;;2.50;;
24897;SDS011;12957;49.434;8.684;2022-09-01T11:47:19;2.80;;;2.60;;
24897;SDS011;12957;49.434;8.684;2022-09-01T11:49:51;2.95;;;2.65;;
24897;SDS011;12957;49.434;8.684;2022-09-01T11:52:19;3.60;;;2.53;;
24897;SDS011;12957;49.434;8.684;2022-09-01T11:54:46;2.75;;;2.55;;
24897;SDS011;12957;49.434;8.684;2022-09-01T11:57:22;2.55;;;2.45;;
24897;SDS011;12957;49.434;8.684;2022-09-01T11:59:48;2.38;;;2.28;;
24897;SDS011;12957;49.434;8.684;2022-09-01T12:02:33;2.55;;;2.40;;
24897;SDS011;12957;49.434;8.684;2022-09-01T12:05:01;2.60;;;2.40;;
24897;SDS011;12957;49.434;8.684;2022-09-01T12:09:52;2.53;;;2.42;;
24897;SDS011;12957;49.434;8.684;2022-09-01T12:12:29;2.80;;;2.60;;
24897;SDS011;12957;49.434;8.684;2022-09-01T12:15:04;2.63;;;2.42;;
24897;SDS011;12957;49.434;8.684;2022-09-01T12:17:33;3.38;;;2.63;;
24897;SDS011;12957;49.434;8.684;2022-09-01T12:23:02;6.43;;;2.90;;
24897;SDS011;12957;49.434;8.684;2022-09-01T12:25:29;3.08;;;2.80;;
24897;SDS011;12957;49.434;8.684;2022-09-01T12:27:58;3.55;;;2.38;;
24897;SDS011;12957;49.434;8.684;2022-09-01T12:30:25;8.32;;;3.13;;
24897;SDS011;12957;49.434;8.684;2022-09-01T12:32:50;3.13;;;2.90;;
24897;SDS011;12957;49.434;8.684;2022-09-01T12:35:20;5.70;;;2.72;;
24897;SDS011;12957;49.434;8.684;2022-09-01T12:37:48;2.47;;;2.38;;
24897;SDS011;12957;49.434;8.684;2022-09-01T12:40:22;3.17;;;2.83;;
24897;SDS011;12957;49.434;8.684;2022-09-01T12:42:50;2.83;;;2.47;;
24897;SDS011;12957;49.434;8.684;2022-09-01T12:45:34;3.00;;;2.80;;
24897;SDS011;12957;49.434;8.684;2022-09-01T12:48:01;2.58;;;2.47;;
24897;SDS011;12957;49.434;8.684;2022-09-01T12:52:59;2.60;;;2.40;;
24897;SDS011;12957;49.434;8.684;2022-09-01T12:55:27;2.40;;;2.25;;
24897;SDS011;12957;49.434;8.684;2022-09-01T12:57:58;2.60;;;2.42;;
24897;SDS011;12957;49.434;8.684;2022-09-01T13:00:29;2.58;;;2.38;;
24897;SDS011;12957;49.434;8.684;2022-09-01T13:05:31;2.75;;;2.55;;
24897;SDS011;12957;49.434;8.684;2022-09-01T13:08:02;3.67;;;2.78;;
24897;SDS011;12957;49.434;8.684;2022-09-01T13:10:33;2.53;;;2.42;;
24897;SDS011;12957;49.434;8.684;2022-09-01T13:13:02;2.70;;;2.50;;
24897;SDS011;12957;49.434;8.684;2022-09-01T13:15:29;2.58;;;2.38;;
24897;SDS011;12957;49.434;8.684;2022-09-01T13:17:55;2.95;;;2.70;;
24897;SDS011;12957;49.434;8.684;2022-09-01T13:20:21;2.22;;;2.13;;
24897;SDS011;12957;49.434;8.684;2022-09-01T13:22:46;2.65;;;2.50;;
24897;SDS011;12957;49.434;8.684;2022-09-01T13:25:13;2.80;;;2.60;;
24897;SDS011;12957;49.434;8.684;2022-09-01T13:27:42;2.95;;;2.08;;
24897;SDS011;12957;49.434;8.684;2022-09-01T13:30:11;2.97;;;2.42;;
24897;SDS011;12957;49.434;8.684;2022-09-01T13:32:44;3.20;;;2.50;;
24897;SDS011;12957;49.434;8.684;2022-09-01T13:35:15;2.47;;;2.28;;
24897;SDS011;12957;49.434;8.684;2022-09-01T13:37:41;2.45;;;2.35;;
24897;SDS011;12957;49.434;8.684;2022-09-01T13:40:07;2.40;;;2.30;;
24897;SDS011;12957;49.434;8.684;2022-09-01T13:42:38;2.30;;;2.20;;
24897;SDS011;12957;49.434;8.684;2022-09-01T13:45:04;2.33;;;2.22;;
24897;SDS011;12957;49.434;8.684;2022-09-01T13:47:30;2.45;;;2.17;;
24897;SDS011;12957;49.434;8.684;2022-09-01T13:49:56;2.67;;;2.35;;
24897;SDS011;12957;49.434;8.684;2022-09-01T13:52:22;3.88;;;2.25;;
24897;SDS011;12957;49.434;8.684;2022-09-01T13:54:47;5.63;;;2.30;;
24897;SDS011;12957;49.434;8.684;2022-09-01T13:57:13;3.17;;;2.70;;
24897;SDS011;12957;49.434;8.684;2022-09-01T13:59:40;3.80;;;2.70;;
24897;SDS011;12957;49.434;8.684;2022-09-01T14:02:06;2.15;;;2.05;;
24897;SDS011;12957;49.434;8.684;2022-09-01T14:04:31;2.45;;;2.22;;
24897;SDS011;12957;49.434;8.684;2022-09-01T14:06:57;2.45;;;2.15;;
24897;SDS011;12957;49.434;8.684;2022-09-01T14:09:23;11.50;;;2.35;;
24897;SDS011;12957;49.434;8.684;2022-09-01T14:11:51;3.22;;;2.47;;
24897;SDS011;12957;49.434;8.684;2022-09-01T14:14:17;3.00;;;2.47;;
24897;SDS011;12957;49.434;8.684;2022-09-01T14:16:44;2.65;;;2.50;;
24897;SDS011;12957;49.434;8.684;2022-09-01T14:19:10;4.07;;;2.40;;
24897;SDS011;12957;49.434;8.684;2022-09-01T14:21:36;3.42;;;2.50;;
24897;SDS011;12957;49.434;8.684;2022-09-01T14:24:02;4.32;;;2.55;;
24897;SDS011;12957;49.434;8.684;2022-09-01T14:26:28;2.53;;;2.17;;
24897;SDS011;12957;49.434;8.684;2022-09-01T14:28:54;2.40;;;2.30;;
24897;SDS011;12957;49.434;8.684;2022-09-01T14:31:19;2.78;;;2.50;;
24897;SDS011;12957;49.434;8.684;2022-09-01T14:33:45;2.95;;;2.67;;
24897;SDS011;12957;49.434;8.684;2022-09-01T14:36:18;2.53;;;2.40;;
24897;SDS011;12957;49.434;8.684;2022-09-01T14:38:46;2.30;;;2.20;;
24897;SDS011;12957;49.434;8.684;2022-09-01T14:41:13;2.53;;;2.20;;
24897;SDS011;12957;49.434;8.684;2022-09-01T14:43:40;2.33;;;2.22;;
24897;SDS011;12957;49.434;8.684;2022-09-01T14:46:07;2.35;;;2.25;;
24897;SDS011;12957;49.434;8.684;2022-09-01T14:48:35;4.07;;;2.38;;
24897;SDS011;12957;49.434;8.684;2022-09-01T14:51:02;3.17;;;2.20;;
24897;SDS011;12957;49.434;8.684;2022-09-01T14:53:28;2.30;;;1.98;;
24897;SDS011;12957;49.434;8.684;2022-09-01T14:55:55;2.35;;;2.17;;
24897;SDS011;12957;49.434;8.684;2022-09-01T14:58:21;2.00;;;1.90;;
24897;SDS011;12957;49.434;8.684;2022-09-01T15:00:47;2.30;;;2.20;;
24897;SDS011;12957;49.434;8.684;2022-09-01T15:03:12;3.28;;;2.40;;
24897;SDS011;12957;49.434;8.684;2022-09-01T15:05:38;3.58;;;2.30;;
24897;SDS011;12957;49.434;8.684;2022-09-01T15:08:04;2.65;;;2.22;;
24897;SDS011;12957;49.434;8.684;2022-09-01T15:10:30;3.72;;;2.15;;
24897;SDS011;12957;49.434;8.684;2022-09-01T15:12:57;2.53;;;2.08;;
24897;SDS011;12957;49.434;8.684;2022-09-01T15:15:24;3.92;;;2.20;;
24897;SDS011;12957;49.434;8.684;2022-09-01T15:17:50;2.13;;;1.90;;
24897;SDS011;12957;49.434;8.684;2022-09-01T15:20:17;2.60;;;2.20;;
24897;SDS011;12957;49.434;8.684;2022-09-01T15:23:01;2.58;;;2.22;;
24897;SDS011;12957;49.434;8.684;2022-09-01T15:25:26;2.10;;;2.00;;
24897;SDS011;12957;49.434;8.684;2022-09-01T15:27:52;2.40;;;2.30;;
24897;SDS011;12957;49.434;8.684;2022-09-01T15:30:17;2.78;;;2.15;;
24897;SDS011;12957;49.434;8.684;2022-09-01T15:32:44;8.55;;;2.00;;
24897;SDS011;12957;49.434;8.684;2022-09-01T15:35:12;3.22;;;2.13;;
24897;SDS011;12957;49.434;8.684;2022-09-01T15:37:37;2.33;;;2.13;;
24897;SDS011;12957;49.434;8.684;2022-09-01T15:40:04;2.30;;;2.20;;
24897;SDS011;12957;49.434;8.684;2022-09-01T15:42:31;2.28;;;2.13;;
24897;SDS011;12957;49.434;8.684;2022-09-01T15:44:57;10.88;;;2.40;;
24897;SDS011;12957;49.434;8.684;2022-09-01T15:47:23;2.25;;;2.15;;
24897;SDS011;12957;49.434;8.684;2022-09-01T15:49:50;2.05;;;1.95;;
24897;SDS011;12957;49.434;8.684;2022-09-01T15:52:15;2.75;;;2.55;;
24897;SDS011;12957;49.434;8.684;2022-09-01T15:54:41;2.40;;;2.20;;
24897;SDS011;12957;49.434;8.684;2022-09-01T15:57:06;2.90;;;2.63;;
24897;SDS011;12957;49.434;8.684;2022-09-01T15:59:32;2.45;;;2.30;;
24897;SDS011;12957;49.434;8.684;2022-09-01T16:01:58;2.33;;;2.13;;
24897;SDS011;12957;49.434;8.684;2022-09-01T16:04:24;4.00;;;1.95;;
24897;SDS011;12957;49.434;8.684;2022-09-01T16:06:50;2.95;;;2.00;;
24897;SDS011;12957;49.434;8.684;2022-09-01T16:09:17;3.08;;;2.13;;
24897;SDS011;12957;49.434;8.684;2022-09-01T16:11:45;2.95;;;2.10;;
24897;SDS011;12957;49.434;8.684;2022-09-01T16:14:10;2.35;;;2.22;;